EW6753 Weather Reports


time (UTC)temp
C
wind
direction
speed
KPH
gust
KPH
rain 1hr
cm
rain 24hr
cm
rain mn
cm
humidity
%
barometer
mb
20230127233004 -7 288 6.4 14.5 0.00 0.00 0.00 65 1010.6
20230127232503 -7 286 8.0 20.9 0.00 0.00 0.00 65 1010.6
20230127232003 -7 284 11.3 24.1 0.00 0.00 0.00 64 1010.5
20230127231503 -7 280 9.7 24.1 0.00 0.00 0.00 64 1010.2
20230127231003 -7 276 9.7 24.1 0.00 0.00 0.00 64 1010.1
20230127230503 -7 276 9.7 22.5 0.00 0.00 0.00 64 1010.0
20230127230003 -6 278 9.7 22.5 0.00 0.00 0.00 64 1009.9
20230127225504 -6 279 11.3 25.7 0.00 0.00 0.00 63 1009.7
20230127225024 -6 273 11.3 25.7 0.00 0.00 0.00 63 1009.7
20230127224504 -6 269 8.0 22.5 0.00 0.00 0.00 63 1009.5
20230127224003 -6 283 8.0 17.7 0.00 0.00 0.00 62 1009.2
20230127223503 -6 293 8.0 17.7 0.00 0.00 0.00 62 1009.1
20230127223003 -6 291 11.3 24.1 0.00 0.00 0.00 62 1009.0
20230127222504 -6 288 12.9 24.1 0.00 0.00 0.00 61 1008.9
20230127222003 -6 282 12.9 24.1 0.00 0.00 0.00 62 1008.8
20230127221503 -5 274 11.3 22.5 0.00 0.00 0.00 62 1008.7
20230127221024 -5 276 11.3 19.3 0.00 0.00 0.00 62 1008.6
20230127220503 -5 278 11.3 30.6 0.00 0.00 0.00 62 1008.4
20230127220003 -5 281 11.3 30.6 0.00 0.00 0.00 61 1008.2
20230127215503 -5 290 11.3 27.4 0.00 0.00 0.00 61 1008.2
20230127215003 -5 291 9.7 27.4 0.00 0.00 0.00 61 1008.1
20230127214503 -5 298 9.7 22.5 0.00 0.00 0.00 62 1007.9
20230127214003 -5 299 9.7 24.1 0.00 0.00 0.00 61 1007.8
20230127213503 -5 298 9.7 27.4 0.00 0.00 0.00 61 1007.8
20230127213004 -5 290 9.7 27.4 0.00 0.00 0.00 61 1007.6
20230127212504 -5 293 9.7 22.5 0.00 0.00 0.00 63 1007.6
20230127212003 -5 300 9.7 22.5 0.00 0.00 0.00 63 1007.5
20230127211503 -5 301 9.7 22.5 0.00 0.00 0.00 63 1007.4
20230127211003 -5 301 11.3 25.7 0.00 0.00 0.00 63 1007.4
20230127210503 -5 296 12.9 35.4 0.00 0.00 0.00 63 1007.3
20230127210003 -5 290 12.9 35.4 0.00 0.00 0.00 62 1007.1
20230127205503 -5 283 11.3 24.1 0.00 0.00 0.00 63 1007.0
20230127205003 -5 280 9.7 24.1 0.00 0.00 0.00 64 1006.9
20230127204524 -5 280 9.7 22.5 0.00 0.00 0.00 66 1006.8
20230127204003 -4 275 11.3 25.7 0.00 0.00 0.00 65 1006.7
20230127203503 -5 271 11.3 25.7 0.00 0.00 0.00 67 1006.7
20230127203003 -5 274 9.7 22.5 0.00 0.00 0.00 68 1006.6
20230127202503 -5 275 11.3 25.7 0.00 0.00 0.00 68 1006.6
20230127202024 -5 284 12.9 25.7 0.00 0.00 0.00 68 1006.6
20230127201503 -5 287 14.5 25.7 0.00 0.00 0.00 68 1006.4
20230127201003 -5 280 12.9 24.1 0.00 0.00 0.00 68 1006.3
20230127200503 -5 273 12.9 24.1 0.00 0.00 0.00 68 1006.3
20230127200003 -5 270 12.9 27.4 0.00 0.00 0.00 69 1006.2
20230127195503 -5 275 12.9 27.4 0.00 0.00 0.00 69 1006.1
20230127195003 -5 277 12.9 29.0 0.00 0.00 0.00 69 1006.0
20230127194504 -5 284 12.9 32.2 0.00 0.00 0.00 69 1005.9
20230127194004 -5 285 16.1 32.2 0.00 0.00 0.00 68 1005.9
20230127193503 -5 277 17.7 40.2 0.00 0.00 0.00 68 1005.8
20230127193025 -5 275 16.1 40.2 0.00 0.00 0.00 68 1005.7
20230127192504 -4 282 14.5 27.4 0.00 0.00 0.00 68 1005.7
20230127192003 -4 284 16.1 35.4 0.00 0.00 0.00 68 1005.6
20230127191503 -4 282 14.5 35.4 0.00 0.00 0.00 68 1005.5
20230127191024 -4 280 12.9 32.2 0.00 0.00 0.00 68 1005.3
20230127190524 -4 278 12.9 27.4 0.00 0.00 0.00 68 1005.4
20230127190003 -3 275 11.3 25.7 0.00 0.00 0.00 68 1005.3
20230127185503 -3 278 12.9 30.6 0.00 0.00 0.00 68 1005.1
20230127185004 -3 277 16.1 41.8 0.00 0.00 0.00 68 1005.1
20230127184505 -3 272 16.1 41.8 0.00 0.00 0.00 68 1004.9
20230127184004 -3 278 14.5 32.2 0.00 0.00 0.00 69 1004.9
20230127183524 -3 281 12.9 29.0 0.00 0.00 0.00 70 1004.8
20230127183003 -3 274 12.9 30.6 0.00 0.00 0.00 70 1004.7
20230127182504 -3 271 12.9 30.6 0.00 0.00 0.00 70 1004.6
20230127182003 -3 269 12.9 30.6 0.00 0.00 0.00 69 1004.7
20230127181524 -3 275 14.5 27.4 0.00 0.00 0.00 69 1004.7
20230127181003 -3 281 16.1 35.4 0.00 0.00 0.00 69 1004.7
20230127180503 -3 275 14.5 35.4 0.00 0.00 0.00 69 1004.7
20230127180003 -3 275 14.5 29.0 0.00 0.00 0.00 69 1004.4
20230127175503 -3 283 14.5 29.0 0.00 0.00 0.00 69 1004.3
20230127175024 -3 285 12.9 29.0 0.00 0.00 0.00 70 1004.1
20230127174503 -3 286 12.9 29.0 0.00 0.00 0.00 70 1003.8
20230127174024 -3 287 12.9 25.7 0.00 0.00 0.00 70 1003.8
20230127173524 -2 284 14.5 25.7 0.00 0.00 0.00 71 1003.8
20230127173004 -2 276 11.3 25.7 0.00 0.00 0.00 73 1003.8
20230127172505 -3 276 11.3 20.9 0.00 0.00 0.00 75 1003.7
20230127172004 -3 281 14.5 37.0 0.00 0.00 0.00 76 1003.7
20230127171504 -3 281 17.7 37.0 0.00 0.00 0.00 76 1003.6
20230127171005 -3 282 19.3 33.8 0.00 0.00 0.00 78 1003.6
20230127170504 -3 284 19.3 32.2 0.00 0.00 0.00 78 1003.6
20230127170003 -3 286 19.3 40.2 0.00 0.00 0.00 79 1003.5
20230127165503 -3 290 16.1 40.2 0.00 0.00 0.00 80 1003.4
20230127165003 -3 295 12.9 30.6 0.00 0.00 0.00 80 1003.3
20230127164525 -3 294 14.5 33.8 0.00 0.00 0.00 80 1003.1
20230127164003 -3 294 16.1 33.8 0.00 0.00 0.00 80 1003.1
20230127163503 -3 288 17.7 33.8 0.00 0.00 0.00 81 1003.0
20230127163003 -3 283 16.1 32.2 0.00 0.00 0.00 81 1002.7
20230127162503 -3 282 16.1 32.2 0.00 0.00 0.00 82 1002.6
20230127162003 -3 284 17.7 49.9 0.00 0.00 0.00 83 1002.4
20230127161503 -3 288 16.1 49.9 0.00 0.00 0.00 83 1002.2
20230127161004 -2 287 12.9 27.4 0.00 0.00 0.00 84 1002.1
20230127160504 -2 289 14.5 30.6 0.00 0.00 0.00 85 1001.9
20230127160004 -2 287 17.7 30.6 0.00 0.00 0.00 85 1001.8
20230127155504 -2 284 17.7 40.2 0.00 0.00 0.00 85 1001.6
20230127155004 -2 286 17.7 40.2 0.00 0.00 0.00 86 1001.4
20230127154504 -2 283 14.5 25.7 0.00 0.00 0.00 87 1001.2
20230127154025 -2 278 14.5 30.6 0.00 0.00 0.00 87 1001.1
20230127153524 -2 279 14.5 30.6 0.00 0.00 0.00 87 1001.0
20230127153004 -2 279 14.5 29.0 0.00 0.00 0.00 88 1000.8
20230127152504 -2 286 12.9 29.0 0.00 0.00 0.00 88 1000.7
20230127152003 -1 293 11.3 24.1 0.00 0.00 0.00 88 1000.5
20230127151504 -1 285 11.3 24.1 0.00 0.00 0.00 89 1000.3
20230127151003 -1 284 11.3 25.7 0.00 0.00 0.00 89 999.9
20230127150524 -1 283 11.3 25.7 0.00 0.00 0.00 89 999.9
20230127150003 -1 274 12.9 35.4 0.00 0.00 0.00 89 999.7
20230127145503 -1 278 12.9 35.4 0.00 0.00 0.00 90 999.4
20230127145004 -1 288 11.3 29.0 0.00 0.00 0.00 90 999.3
20230127144503 0 283 12.9 29.0 0.00 0.00 0.00 90 999.1
20230127144004 0 283 16.1 27.4 0.00 0.00 0.00 90 998.9
20230127143504 0 288 11.3 25.7 0.00 0.00 0.00 91 998.8
20230127143025 0 289 9.7 37.0 0.00 0.00 0.00 91 998.5
20230127142503 0 286 12.9 37.0 0.00 0.00 0.00 91 998.5
20230127142004 0 281 14.5 33.8 0.00 0.00 0.00 91 998.3
20230127141503 0 279 12.9 33.8 0.00 0.00 0.00 91 998.1
20230127141003 0 275 12.9 29.0 0.00 0.00 0.00 92 997.9
20230127140503 0 276 12.9 29.0 0.00 0.00 0.00 92 997.7
20230127140003 0 284 9.7 22.5 0.00 0.00 0.00 92 997.4
20230127135502 0 284 9.7 19.3 0.00 0.00 0.00 92 997.2
20230127135023 0 284 8.0 17.7 0.00 0.00 0.00 92 997.1
20230127134502 0 285 8.0 19.3 0.00 0.00 0.00 92 996.9
20230127134002 0 284 6.4 19.3 0.00 0.00 0.00 92 996.7
20230127133502 0 286 6.4 16.1 0.00 0.00 0.00 92 996.6
20230127133003 0 285 8.0 19.3 0.00 0.00 0.00 92 996.7
20230127132502 -1 283 6.4 22.5 0.00 0.00 0.00 91 996.6
20230127132002 -1 289 3.2 22.5 0.00 0.00 0.00 91 996.6
20230127131502 -1 289 0.0 4.8 0.00 0.00 0.00 91 996.4
20230127131002 -1 252 0.0 1.6 0.00 0.00 0.00 91 996.3
20230127130503 -1 255 0.0 6.4 0.00 0.00 0.00 91 996.2
20230127130003 -1 256 0.0 6.4 0.00 0.00 0.00 91 996.1
20230127125502 -1 261 0.0 1.6 0.00 0.00 0.00 91 996.1
20230127125002 -1 264 0.0 1.6 0.00 0.00 0.00 91 996.0
20230127124503 -2 280 0.0 4.8 0.00 0.00 0.00 91 995.9
20230127124025 -2 284 0.0 4.8 0.00 0.00 0.00 91 995.8
20230127123524 -2 229 0.0 3.2 0.00 0.00 0.00 91 995.7
20230127123002 -2 178 1.6 9.7 0.00 0.00 0.00 90 995.7
20230127122503 -2 180 1.6 9.7 0.00 0.00 0.00 90 995.7
20230127122002 -2 191 1.6 6.4 0.00 0.00 0.00 90 995.7
20230127121503 -2 193 0.0 6.4 0.00 0.00 0.00 91 995.5
20230127121002 -2 199 1.6 6.4 0.00 0.00 0.00 91 995.5
20230127120523 -2 201 1.6 6.4 0.00 0.00 0.00 91 995.5
20230127120002 -2 186 3.2 8.0 0.00 0.00 0.00 90 995.5
20230127115502 -2 180 3.2 8.0 0.00 0.00 0.00 90 995.4
20230127115002 -2 183 1.6 8.0 0.00 0.00 0.00 90 995.4
20230127114502 -2 188 3.2 8.0 0.00 0.00 0.00 91 995.4
20230127114003 -2 187 3.2 8.0 0.00 0.00 0.00 91 995.4
20230127113502 -2 190 3.2 9.7 0.00 0.00 0.00 90 995.5
20230127113023 -2 192 3.2 12.9 0.00 0.00 0.00 90 995.4
20230127112503 -2 190 4.8 12.9 0.00 0.00 0.00 90 995.5
20230127112002 -3 191 4.8 11.3 0.00 0.00 0.00 90 995.6
20230127111523 -3 187 4.8 12.9 0.00 0.00 0.00 90 995.6
20230127111002 -3 185 3.2 17.7 0.00 0.00 0.00 90 995.6
20230127110523 -3 183 3.2 17.7 0.00 0.00 0.00 90 995.6
20230127110003 -3 176 3.2 11.3 0.00 0.00 0.00 90 995.7
20230127105503 -3 189 3.2 11.3 0.00 0.00 0.00 90 995.9
20230127105024 -3 193 4.8 11.3 0.00 0.00 0.00 90 995.9
20230127104503 -3 180 4.8 11.3 0.00 0.00 0.00 90 996.0
20230127104002 -3 174 4.8 12.9 0.00 0.00 0.00 90 996.0
20230127103502 -3 176 4.8 12.9 0.00 0.00 0.00 90 996.0
20230127103002 -3 184 4.8 12.9 0.00 0.00 0.00 90 996.1
20230127102502 -3 178 4.8 14.5 0.00 0.00 0.00 90 996.1
20230127102002 -3 179 4.8 14.5 0.00 0.00 0.00 90 996.2
20230127101524 -3 180 4.8 17.7 0.00 0.00 0.00 90 996.1
20230127101002 -3 179 6.4 20.9 0.00 0.00 0.00 90 996.1
20230127100502 -3 183 8.0 20.9 0.00 0.00 0.00 90 996.3
20230127100003 -4 182 6.4 17.7 0.00 0.00 0.00 89 996.3
20230127095502 -4 181 6.4 16.1 0.00 0.00 0.00 89 996.4
20230127095002 -4 182 8.0 17.7 0.00 0.00 0.00 89 996.5
20230127094523 -4 183 8.0 17.7 0.00 0.00 0.00 89 996.6
20230127094002 -4 182 6.4 22.5 0.00 0.00 0.00 89 996.7
20230127093503 -5 176 8.0 22.5 0.00 0.00 0.00 89 996.9
20230127093003 -5 176 8.0 19.3 0.00 0.00 0.00 89 996.9
20230127092502 -5 175 8.0 19.3 0.00 0.00 0.00 89 997.1
20230127092023 -5 178 6.4 17.7 0.00 0.00 0.00 89 997.1
20230127091502 -5 182 6.4 16.1 0.00 0.00 0.00 89 997.3
20230127091002 -5 176 6.4 17.7 0.00 0.00 0.00 89 997.4
20230127090503 -5 174 4.8 17.7 0.00 0.00 0.00 88 997.4
20230127090002 -5 178 4.8 14.5 0.00 0.00 0.00 88 997.5
20230127085503 -6 181 4.8 12.9 0.00 0.00 0.00 88 997.7
20230127085003 -6 178 4.8 14.5 0.00 0.00 0.00 88 997.8
20230127084503 -6 178 6.4 17.7 0.00 0.00 0.00 88 997.8
20230127084024 -6 178 6.4 22.5 0.00 0.00 0.00 88 998.1
20230127083503 -6 175 4.8 22.5 0.00 0.00 0.00 88 998.2
20230127083002 -6 179 6.4 19.3 0.00 0.00 0.00 88 998.3
20230127082503 -6 179 6.4 17.7 0.00 0.00 0.00 88 998.5
20230127082003 -6 177 6.4 17.7 0.00 0.00 0.00 88 998.6
20230127081503 -6 176 6.4 17.7 0.00 0.00 0.00 88 998.8
20230127081002 -7 179 4.8 17.7 0.00 0.00 0.00 87 998.9
20230127080524 -7 172 4.8 17.7 0.00 0.00 0.00 87 999.0
20230127080003 -7 164 4.8 12.9 0.00 0.00 0.00 87 999.1
20230127075503 -7 169 4.8 17.7 0.00 0.00 0.00 87 999.3
20230127075002 -7 176 6.4 17.7 0.00 0.00 0.00 87 999.4
20230127074502 -7 182 4.8 16.1 0.00 0.00 0.00 87 999.6
20230127074002 -7 176 4.8 16.1 0.00 0.00 0.00 87 999.8
20230127073502 -7 169 3.2 11.3 0.00 0.00 0.00 87 999.8
20230127073002 -7 174 4.8 20.9 0.00 0.00 0.00 86 999.8
20230127072502 -7 179 6.4 20.9 0.00 0.00 0.00 86 1000.0
20230127072002 -7 176 6.4 16.1 0.00 0.00 0.00 86 1000.1
20230127071523 -8 170 6.4 16.1 0.00 0.00 0.00 86 1000.2
20230127071003 -8 166 6.4 19.3 0.00 0.00 0.00 86 1000.4
20230127070524 -8 167 6.4 20.9 0.00 0.00 0.00 86 1000.4
20230127070004 -8 168 6.4 20.9 0.00 0.00 0.00 86 1000.6
20230127065524 -8 173 4.8 19.3 0.00 0.00 0.00 86 1000.7
20230127065002 -8 174 4.8 19.3 0.00 0.00 0.00 86 1000.9
20230127064502 -8 171 6.4 14.5 0.00 0.00 0.00 85 1001.1
20230127064003 -8 169 6.4 19.3 0.00 0.00 0.00 85 1001.3
20230127063502 -8 166 6.4 19.3 0.00 0.00 0.00 85 1001.4
20230127063002 -8 167 6.4 16.1 0.00 0.00 0.00 85 1001.7
20230127062523 -8 168 4.8 16.1 0.00 0.00 0.00 85 1001.9
20230127062002 -8 165 4.8 12.9 0.00 0.00 0.00 85 1002.0
20230127061503 -8 170 4.8 19.3 0.00 0.00 0.00 84 1002.2
20230127061024 -8 172 6.4 19.3 0.00 0.00 0.00 84 1002.4
20230127060503 -8 169 6.4 17.7 0.00 0.00 0.00 84 1002.6
20230127060003 -8 166 6.4 14.5 0.00 0.00 0.00 84 1002.8
20230127055503 -8 165 6.4 19.3 0.00 0.00 0.00 84 1002.8
20230127055002 -8 163 4.8 19.3 0.00 0.00 0.00 84 1002.9
20230127054502 -8 159 6.4 25.7 0.00 0.00 0.00 84 1003.2
20230127054002 -8 160 6.4 25.7 0.00 0.00 0.00 84 1003.3
20230127053502 -9 156 6.4 16.1 0.00 0.00 0.00 83 1003.5
20230127053023 -9 151 4.8 16.1 0.00 0.00 0.00 83 1003.6
20230127052502 -9 161 4.8 17.7 0.00 0.00 0.00 83 1003.8
20230127052003 -9 164 6.4 17.7 0.00 0.00 0.00 83 1004.0
20230127051504 -9 172 4.8 16.1 0.00 0.00 0.00 82 1004.2
20230127051003 -9 170 4.8 12.9 0.00 0.00 0.00 82 1004.4
20230127050503 -9 156 6.4 16.1 0.00 0.00 0.00 82 1004.4
20230127050004 -9 159 4.8 20.9 0.00 0.00 0.00 82 1004.5
20230127045503 -8 160 4.8 20.9 0.00 0.00 0.00 82 1004.7
20230127045003 -8 157 3.2 14.5 0.00 0.00 0.00 82 1005.0
20230127044503 -8 152 4.8 14.5 0.00 0.00 0.00 82 1005.2
20230127044003 -8 157 4.8 16.1 0.00 0.00 0.00 82 1005.5
20230127043503 -9 166 4.8 16.1 0.00 0.00 0.00 82 1005.8
20230127043002 -9 171 4.8 14.5 0.00 0.00 0.00 82 1006.0
20230127042502 -9 175 6.4 14.5 0.00 0.00 0.00 82 1006.2
20230127042002 -9 175 4.8 14.5 0.00 0.00 0.00 81 1006.3
20230127041523 -9 171 4.8 17.7 0.00 0.00 0.00 81 1006.4
20230127041003 -9 173 4.8 17.7 0.00 0.00 0.00 81 1006.7
20230127040503 -9 173 4.8 12.9 0.00 0.00 0.00 81 1006.8
20230127040003 -9 176 6.4 16.1 0.00 0.00 0.00 81 1006.9
20230127035503 -9 175 6.4 17.7 0.00 0.00 0.00 81 1007.1
20230127035003 -10 175 8.0 20.9 0.00 0.00 0.00 81 1007.1
20230127034504 -10 179 8.0 20.9 0.00 0.00 0.00 81 1007.4
20230127034003 -10 181 6.4 17.7 0.00 0.00 0.00 81 1007.5
20230127033502 -10 174 6.4 22.5 0.00 0.00 0.00 81 1007.7
20230127033002 -10 174 8.0 22.5 0.00 0.00 0.00 81 1007.9
20230127032502 -10 181 8.0 20.9 0.00 0.00 0.00 81 1008.0
20230127032002 -10 183 6.4 14.5 0.00 0.00 0.00 81 1008.2
20230127031502 -10 180 4.8 16.1 0.00 0.00 0.00 81 1008.2
20230127031002 -10 183 6.4 16.1 0.00 0.00 0.00 82 1008.3
20230127030523 -10 184 6.4 14.5 0.00 0.00 0.00 81 1008.5
20230127030002 -10 179 8.0 17.7 0.00 0.00 0.00 81 1008.7
20230127025523 -10 179 8.0 17.7 0.00 0.00 0.00 81 1008.8
20230127025003 -10 176 6.4 17.7 0.00 0.00 0.00 81 1008.8
20230127024503 -10 170 4.8 17.7 0.00 0.00 0.00 81 1008.8
20230127024003 -10 169 6.4 14.5 0.00 0.00 0.00 81 1008.8
20230127023503 -10 164 6.4 14.5 0.00 0.00 0.00 81 1008.9
20230127023003 -10 163 4.8 16.1 0.00 0.00 0.00 81 1009.1
20230127022523 -10 172 6.4 16.1 0.00 0.00 0.00 81 1009.2
20230127022023 -10 175 6.4 16.1 0.00 0.00 0.00 81 1009.5
20230127021502 -10 179 6.4 16.1 0.00 0.00 0.00 81 1009.7
20230127021002 -10 176 6.4 16.1 0.00 0.00 0.00 81 1009.9
20230127020523 -10 176 6.4 16.1 0.00 0.00 0.00 80 1010.1
20230127020003 -10 178 4.8 16.1 0.00 0.00 0.00 80 1010.1
20230127015502 -10 178 4.8 12.9 0.00 0.00 0.00 80 1010.2
20230127015003 -10 178 4.8 12.9 0.00 0.00 0.00 80 1010.3
20230127014502 -10 176 4.8 14.5 0.00 0.00 0.00 79 1010.5
20230127014024 -10 172 4.8 19.3 0.00 0.00 0.00 79 1010.6
20230127013503 -10 173 6.4 19.3 0.00 0.00 0.00 79 1010.9
20230127013003 -10 180 6.4 16.1 0.00 0.00 0.00 79 1011.1
20230127012524 -10 183 6.4 16.1 0.00 0.00 0.00 79 1011.3
20230127012002 -10 181 6.4 16.1 0.00 0.00 0.00 79 1011.6
20230127011502 -10 183 4.8 14.5 0.00 0.00 0.00 78 1011.7
20230127011002 -10 191 3.2 12.9 0.00 0.00 0.00 78 1011.9
20230127010523 -10 191 3.2 16.1 0.00 0.00 0.00 78 1012.1
20230127010003 -10 191 4.8 16.1 0.00 0.00 0.00 77 1012.3
20230127005503 -10 188 4.8 16.1 0.00 0.00 0.00 77 1012.4
20230127005003 -10 185 4.8 12.9 0.00 0.00 0.00 77 1012.4
20230127004503 -10 188 3.2 12.9 0.00 0.00 0.00 78 1012.5
20230127004003 -10 186 3.2 12.9 0.00 0.00 0.00 78 1012.6
20230127003502 -10 180 3.2 11.3 0.00 0.00 0.00 78 1012.7
20230127003002 -11 176 1.6 8.0 0.00 0.00 0.00 78 1012.7
20230127002502 -11 181 1.6 8.0 0.00 0.00 0.00 78 1012.7
20230127002002 -11 188 0.0 4.8 0.00 0.00 0.00 78 1012.7
20230127001502 -11 188 0.0 4.8 0.00 0.00 0.00 78 1012.8
20230127001024 -11 188 0.0 4.8 0.00 0.00 0.00 78 1012.7
20230127000503 -11 188 0.0 4.8 0.00 0.00 0.00 77 1012.7
20230127000003 -11 179 0.0 4.8 0.00 0.00 0.00 76 1012.7
20230126235503 -11 186 1.6 8.0 0.00 0.00 0.00 76 1012.6
20230126235003 -11 187 3.2 9.7 0.00 0.00 0.00 75 1012.5
20230126234502 -11 185 3.2 9.7 0.00 0.00 0.00 75 1012.6
20230126234002 -11 200 3.2 8.0 0.00 0.00 0.00 74 1012.6
20230126233524 -11 230 1.6 4.8 0.00 0.00 0.00 74 1012.6